Time;durP1;ratioP1;P1;durP2;ratioP2;P2;SDS_P1;SDS_P2;PMS_P1;PMS_P2;Temp;Humidity;BMP_temperature;BMP_pressure;BME280_temperature;BME280_humidity;BME280_pressure;Samples;Min_cycle;Max_cycle;Signal;HPM_P1;HPM_P2
2022/04/01 00:00:38;;;;;;;5.65;3.50;;;1.90;84.50;;;;;;5050013;28;20454;-70
2022/04/01 00:03:05;;;;;;;3.40;2.53;;;1.90;84.30;;;;;;5050099;28;20769;-70
2022/04/01 00:05:33;;;;;;;3.90;3.10;;;1.90;84.30;;;;;;5049740;28;20053;-70
2022/04/01 00:07:59;;;;;;;5.38;2.95;;;1.90;84.20;;;;;;5051032;28;20056;-70
2022/04/01 00:10:27;;;;;;;3.83;2.85;;;1.90;84.10;;;;;;5032204;28;20051;-70
2022/04/01 00:12:52;;;;;;;6.93;2.72;;;1.90;84.10;;;;;;5048684;28;20060;-70
2022/04/01 00:15:18;;;;;;;2.80;2.60;;;1.90;83.70;;;;;;5049605;28;20462;-70
2022/04/01 00:17:44;;;;;;;3.95;2.75;;;1.90;83.80;;;;;;5050584;28;20060;-70
2022/04/01 00:20:13;;;;;;;4.72;2.78;;;1.90;83.90;;;;;;5048445;28;20036;-70
2022/04/01 00:22:40;;;;;;;5.00;2.65;;;1.90;83.80;;;;;;5049056;28;20052;-70
2022/04/01 00:25:06;;;;;;;6.80;3.30;;;2.00;83.60;;;;;;5049932;28;20128;-70
2022/04/01 00:27:32;;;;;;;2.67;2.25;;;1.90;83.40;;;;;;5049840;28;20044;-70
2022/04/01 00:29:58;;;;;;;5.68;2.65;;;1.90;83.30;;;;;;5047846;28;20045;-70
2022/04/01 00:32:24;;;;;;;7.03;2.22;;;1.90;83.20;;;;;;5050055;28;20133;-70
2022/04/01 00:34:51;;;;;;;7.72;2.70;;;1.90;83.10;;;;;;5049766;28;20068;-70
2022/04/01 00:37:17;;;;;;;2.75;2.15;;;1.90;82.40;;;;;;5048314;28;20128;-70
2022/04/01 00:39:43;;;;;;;2.92;2.10;;;2.00;82.60;;;;;;5049280;28;20048;-70
2022/04/01 00:42:08;;;;;;;5.82;2.58;;;2.00;82.30;;;;;;5038537;28;20513;-70
2022/04/01 00:44:36;;;;;;;3.67;2.35;;;2.00;82.10;;;;;;5041637;28;20455;-70
2022/04/01 00:47:08;;;;;;;3.33;2.40;;;2.10;82.00;;;;;;5049877;28;20048;-70
2022/04/01 00:49:34;;;;;;;3.20;2.38;;;2.10;81.70;;;;;;5048185;28;20559;-70
2022/04/01 00:52:02;;;;;;;8.70;1.98;;;2.10;81.70;;;;;;5048355;28;20063;-70
2022/04/01 00:54:28;;;;;;;3.80;2.20;;;2.10;81.80;;;;;;5036545;28;20135;-70
2022/04/01 00:56:55;;;;;;;3.63;2.45;;;2.20;81.60;;;;;;5031273;28;20140;-70
2022/04/01 00:59:21;;;;;;;4.97;2.20;;;2.20;81.30;;;;;;5049177;28;20091;-70
2022/04/01 01:01:48;;;;;;;4.20;2.10;;;2.20;81.20;;;;;;5047559;28;20128;-70
2022/04/01 01:04:15;;;;;;;2.22;2.03;;;2.20;80.70;;;;;;5048641;28;20045;-70
2022/04/01 01:06:44;;;;;;;3.83;2.35;;;2.20;80.60;;;;;;5048181;28;20063;-70
2022/04/01 01:09:11;;;;;;;4.70;2.10;;;2.30;80.30;;;;;;5049414;28;20044;-70
2022/04/01 01:11:37;;;;;;;2.00;1.80;;;2.30;80.00;;;;;;5039321;28;20044;-70
2022/04/01 01:14:04;;;;;;;3.40;2.08;;;2.30;79.80;;;;;;5048777;28;20052;-70
2022/04/01 01:16:31;;;;;;;2.25;2.00;;;2.30;79.80;;;;;;5048402;28;20051;-70
2022/04/01 01:19:10;;;;;;;4.60;1.92;;;2.30;79.70;;;;;;5049180;28;20052;-70
2022/04/01 01:21:37;;;;;;;4.53;2.20;;;2.30;79.70;;;;;;5045231;28;20049;-70
2022/04/01 01:24:05;;;;;;;6.32;2.47;;;2.30;79.90;;;;;;5049485;28;20044;-70
2022/04/01 01:26:32;;;;;;;7.85;1.88;;;2.30;80.00;;;;;;5044634;28;20045;-70
2022/04/01 01:28:59;;;;;;;2.65;1.98;;;2.20;80.00;;;;;;5048482;28;20151;-70
2022/04/01 01:31:25;;;;;;;4.57;2.20;;;2.30;80.00;;;;;;5048027;28;20563;-70
2022/04/01 01:33:53;;;;;;;5.18;2.42;;;2.20;79.80;;;;;;5041457;28;20090;-70
2022/04/01 01:36:19;;;;;;;4.38;2.20;;;2.30;79.90;;;;;;5047446;28;20581;-70
2022/04/01 01:38:45;;;;;;;2.33;1.65;;;2.30;80.00;;;;;;5037636;28;20099;-70
2022/04/01 01:41:11;;;;;;;3.70;1.95;;;2.30;80.00;;;;;;5031872;28;20091;-70
2022/04/01 01:43:38;;;;;;;2.67;1.92;;;2.30;79.70;;;;;;5051432;28;20441;-69
2022/04/01 01:46:04;;;;;;;4.53;2.58;;;2.30;79.60;;;;;;5047622;28;20056;-70
2022/04/01 01:48:30;;;;;;;6.75;2.28;;;2.40;79.70;;;;;;5043590;28;20052;-70
2022/04/01 01:56:24;;;;;;;3.90;1.65;;;2.40;79.20;;;;;;5032706;28;20136;-70
2022/04/01 01:58:50;;;;;;;3.03;1.50;;;2.50;79.10;;;;;;5047145;28;20127;-70
2022/04/01 02:01:15;;;;;;;2.40;1.70;;;2.50;78.60;;;;;;5052730;28;20051;-70
2022/04/01 02:03:41;;;;;;;5.47;1.73;;;2.60;77.90;;;;;;5045395;28;20150;-70
2022/04/01 02:06:07;;;;;;;4.32;1.90;;;2.60;77.80;;;;;;5052954;28;20053;-70
2022/04/01 02:08:33;;;;;;;7.15;2.03;;;2.50;77.60;;;;;;5051303;28;20052;-70
2022/04/01 02:10:59;;;;;;;5.03;1.90;;;2.50;77.80;;;;;;5052310;28;20459;-70
2022/04/01 02:13:27;;;;;;;3.90;1.80;;;2.60;77.70;;;;;;5052510;28;20045;-70
2022/04/01 02:15:55;;;;;;;7.65;2.03;;;2.60;77.40;;;;;;5047233;28;20564;-70
2022/04/01 02:18:20;;;;;;;6.05;1.58;;;2.60;77.30;;;;;;5039699;28;20458;-70
2022/04/01 02:20:47;;;;;;;8.93;1.60;;;2.60;77.10;;;;;;5049783;28;20080;-70
2022/04/01 02:23:13;;;;;;;4.63;1.60;;;2.70;77.20;;;;;;5051437;28;20037;-70
2022/04/01 02:25:42;;;;;;;2.20;1.40;;;2.60;76.80;;;;;;5049434;28;20174;-70
2022/04/01 02:28:11;;;;;;;4.68;1.60;;;2.70;76.60;;;;;;5036624;28;20053;-70
2022/04/01 02:30:38;;;;;;;5.82;1.88;;;2.70;76.40;;;;;;5041486;28;20044;-70
2022/04/01 02:33:06;;;;;;;6.10;2.08;;;2.60;76.40;;;;;;5050188;28;20486;-70
2022/04/01 02:35:32;;;;;;;5.13;1.35;;;2.60;76.90;;;;;;5052076;28;20438;-70
2022/04/01 02:37:58;;;;;;;5.65;1.75;;;2.70;76.80;;;;;;5048987;28;20144;-70
2022/04/01 02:40:23;;;;;;;5.43;1.92;;;2.70;76.60;;;;;;5050516;28;20041;-70
2022/04/01 02:42:53;;;;;;;3.90;2.13;;;2.60;76.80;;;;;;5050971;28;20133;-70
2022/04/01 02:45:20;;;;;;;2.67;1.55;;;2.70;76.70;;;;;;5032864;28;20048;-70
2022/04/01 02:47:45;;;;;;;6.72;2.13;;;2.70;76.50;;;;;;5051492;28;20088;-70
2022/04/01 02:50:11;;;;;;;5.18;1.70;;;2.70;76.20;;;;;;5034691;28;20140;-70
2022/04/01 02:52:37;;;;;;;4.18;1.70;;;2.80;76.00;;;;;;5047393;28;20406;-70
2022/04/01 02:55:05;;;;;;;2.78;1.90;;;2.70;76.00;;;;;;5051236;28;20053;-70
2022/04/01 02:57:31;;;;;;;4.30;1.67;;;2.70;76.30;;;;;;5049171;28;20056;-70
2022/04/01 02:59:57;;;;;;;3.58;1.80;;;2.70;76.20;;;;;;5032107;28;20087;-70
2022/04/01 03:02:22;;;;;;;5.90;1.95;;;2.70;76.00;;;;;;5043529;28;20037;-70
2022/04/01 03:04:48;;;;;;;5.78;2.05;;;2.70;76.10;;;;;;5045656;28;20052;-71
2022/04/01 03:07:14;;;;;;;4.68;1.80;;;2.80;76.20;;;;;;5049922;28;20132;-70
2022/04/01 03:09:39;;;;;;;3.83;1.63;;;2.80;76.00;;;;;;5049302;28;20132;-70
2022/04/01 03:12:07;;;;;;;3.70;1.38;;;2.80;75.50;;;;;;5047247;28;20044;-70
2022/04/01 03:14:33;;;;;;;6.07;1.63;;;2.70;75.50;;;;;;5028511;28;20044;-70
2022/04/01 03:16:58;;;;;;;7.95;2.05;;;2.70;75.70;;;;;;5050025;28;20120;-70
2022/04/01 03:19:25;;;;;;;3.22;1.45;;;2.80;76.00;;;;;;5042912;28;20033;-70
2022/04/01 03:21:51;;;;;;;8.27;2.17;;;2.80;75.60;;;;;;5033468;28;20045;-70
2022/04/01 03:24:16;;;;;;;8.05;1.85;;;2.80;75.90;;;;;;5042155;28;20078;-70
2022/04/01 03:26:42;;;;;;;6.97;1.80;;;2.80;75.90;;;;;;5050544;28;20140;-70
2022/04/01 03:29:10;;;;;;;5.55;1.75;;;2.80;75.70;;;;;;5048303;28;20037;-69
2022/04/01 03:31:37;;;;;;;3.35;1.58;;;2.80;75.70;;;;;;5049828;28;20041;-69
2022/04/01 03:34:04;;;;;;;8.77;1.77;;;2.90;75.30;;;;;;5048245;28;20059;-69
2022/04/01 03:36:29;;;;;;;2.95;1.50;;;3.00;74.90;;;;;;5049590;28;20140;-68
2022/04/01 03:38:55;;;;;;;6.32;1.40;;;2.90;75.00;;;;;;5048970;28;20048;-69
2022/04/01 03:41:22;;;;;;;4.07;1.42;;;2.80;75.20;;;;;;5046616;28;20045;-68
2022/04/01 03:43:48;;;;;;;5.57;1.73;;;2.90;75.20;;;;;;5046824;28;20039;-69
2022/04/01 03:46:18;;;;;;;10.55;1.58;;;3.00;74.40;;;;;;5049411;28;20406;-69
2022/04/01 03:49:01;;;;;;;6.55;1.65;;;2.90;74.30;;;;;;5048092;28;20048;-69
2022/04/01 03:51:29;;;;;;;7.32;1.45;;;2.90;74.40;;;;;;5044498;28;20045;-72
2022/04/01 03:53:57;;;;;;;6.85;1.50;;;2.80;74.80;;;;;;5042527;28;20116;-73
2022/04/01 03:56:36;;;;;;;5.63;2.85;;;2.80;74.40;;;;;;5048524;28;20045;-73
2022/04/01 03:59:04;;;;;;;7.65;1.67;;;2.90;74.50;;;;;;5048844;28;20049;-73
2022/04/01 04:01:29;;;;;;;2.97;1.27;;;2.90;74.50;;;;;;5048564;28;20087;-74
2022/04/01 04:04:00;;;;;;;7.28;2.85;;;2.90;74.30;;;;;;5029675;28;20068;-73
2022/04/01 04:06:26;;;;;;;5.43;1.30;;;2.90;74.60;;;;;;5048223;28;20061;-73
2022/04/01 04:09:00;;;;;;;6.60;1.50;;;2.90;74.00;;;;;;5048010;28;20070;-72
2022/04/01 04:11:28;;;;;;;2.67;1.38;;;2.90;73.90;;;;;;5047180;28;20064;-71
2022/04/01 04:13:56;;;;;;;5.03;1.50;;;2.90;73.90;;;;;;5042619;28;20053;-73
2022/04/01 04:16:31;;;;;;;3.42;1.27;;;2.90;74.00;;;;;;5038794;28;20052;-73
2022/04/01 04:19:16;;;;;;;3.55;1.10;;;2.90;74.10;;;;;;5031014;28;20510;-72
2022/04/01 04:22:05;;;;;;;4.60;1.58;;;3.00;73.90;;;;;;5036883;28;20196;-72
2022/04/01 04:24:38;;;;;;;5.97;1.10;;;3.10;73.20;;;;;;5038745;28;20044;-73
2022/04/01 04:27:16;;;;;;;6.55;1.38;;;3.10;73.00;;;;;;5028352;28;20451;-73
2022/04/01 04:29:50;;;;;;;6.22;1.58;;;3.10;73.10;;;;;;5036203;28;20045;-72
2022/04/01 04:32:59;;;;;;;4.47;1.20;;;3.00;73.20;;;;;;5063900;28;20044;-73
2022/04/01 04:35:27;;;;;;;4.85;1.40;;;3.00;73.60;;;;;;5047087;28;20057;-72
2022/04/01 04:37:57;;;;;;;8.60;1.65;;;3.10;73.50;;;;;;5048608;28;20045;-73
2022/04/01 04:40:23;;;;;;;4.20;1.20;;;3.10;73.30;;;;;;5038597;28;20131;-73
2022/04/01 04:42:49;;;;;;;2.40;0.90;;;3.10;72.70;;;;;;5048929;28;20458;-73
2022/04/01 04:45:20;;;;;;;7.00;1.35;;;3.10;72.70;;;;;;5041172;28;20116;-73
2022/04/01 04:47:47;;;;;;;3.90;1.10;;;3.10;72.20;;;;;;5043821;28;20068;-73
2022/04/01 04:50:16;;;;;;;3.30;1.02;;;3.10;72.40;;;;;;5044632;28;20383;-73
2022/04/01 04:52:44;;;;;;;7.10;2.50;;;3.10;72.60;;;;;;5043884;28;20383;-71
2022/04/01 04:55:17;;;;;;;7.28;1.45;;;3.10;72.20;;;;;;5045656;28;21567;-72
2022/04/01 04:57:44;;;;;;;4.45;1.38;;;3.20;72.60;;;;;;5045701;28;20595;-70
2022/04/01 05:00:10;;;;;;;5.43;1.42;;;3.10;72.40;;;;;;5048478;28;20115;-69
2022/04/01 05:02:42;;;;;;;3.30;1.15;;;3.10;72.60;;;;;;5047208;28;20565;-70
2022/04/01 05:05:18;;;;;;;5.85;1.73;;;3.10;72.40;;;;;;5049969;28;20421;-69
2022/04/01 05:07:47;;;;;;;3.80;1.05;;;3.20;72.60;;;;;;5048191;28;20417;-70
2022/04/01 05:10:23;;;;;;;3.42;1.25;;;3.10;72.70;;;;;;5044523;28;20391;-69
2022/04/01 05:12:56;;;;;;;11.18;1.20;;;3.20;72.50;;;;;;5047943;28;20386;-69
2022/04/01 05:15:34;;;;;;;6.93;1.27;;;3.20;72.20;;;;;;5047783;28;20037;-70
2022/04/01 05:18:16;;;;;;;7.72;1.35;;;3.20;71.90;;;;;;5034151;28;20508;-69
2022/04/01 05:21:00;;;;;;;7.90;0.97;;;3.20;71.90;;;;;;5047608;28;20037;-68
2022/04/01 05:23:37;;;;;;;2.28;1.00;;;3.20;71.60;;;;;;5051342;28;20053;-69
2022/04/01 05:26:38;;;;;;;4.47;1.40;;;3.10;72.00;;;;;;5037881;28;20049;-68
2022/04/01 05:29:09;;;;;;;7.93;0.93;;;3.30;71.20;;;;;;5032751;28;20033;-70
2022/04/01 05:31:42;;;;;;;5.40;1.33;;;3.20;72.00;;;;;;5042683;28;20095;-70
2022/04/01 05:34:16;;;;;;;7.75;1.92;;;3.20;72.10;;;;;;5042884;28;20079;-68
2022/04/01 05:36:43;;;;;;;9.15;1.15;;;3.20;72.30;;;;;;5044207;28;20040;-70
2022/04/01 05:39:11;;;;;;;9.93;1.30;;;3.20;72.60;;;;;;5036696;28;20041;-69
2022/04/01 05:41:37;;;;;;;3.63;1.30;;;3.20;72.20;;;;;;5035776;28;20042;-70
2022/04/01 05:44:05;;;;;;;11.50;1.90;;;3.10;72.50;;;;;;5032893;28;20045;-69
2022/04/01 05:46:33;;;;;;;5.53;1.10;;;3.10;72.40;;;;;;5035443;28;20064;-69
2022/04/01 05:49:00;;;;;;;6.90;1.23;;;3.20;72.80;;;;;;5033796;28;20069;-70
2022/04/01 05:51:30;;;;;;;5.75;2.13;;;3.20;72.50;;;;;;5036250;28;20038;-71
2022/04/01 05:53:57;;;;;;;2.67;1.25;;;3.20;72.70;;;;;;5036792;28;20048;-70
2022/04/01 05:56:23;;;;;;;2.70;1.05;;;3.30;71.50;;;;;;5040374;28;20041;-69
2022/04/01 05:58:49;;;;;;;6.50;1.30;;;3.20;71.90;;;;;;5041568;28;20505;-69
2022/04/01 06:01:23;;;;;;;6.10;1.40;;;3.20;72.10;;;;;;5041553;28;20053;-69
2022/04/01 06:04:10;;;;;;;3.67;1.23;;;3.30;72.30;;;;;;5055128;28;20413;-67
2022/04/01 06:06:40;;;;;;;25.10;4.38;;;3.20;71.80;;;;;;5052060;28;20060;-69
2022/04/01 06:09:33;;;;;;;4.20;1.30;;;3.30;72.00;;;;;;5052402;28;20138;-70
2022/04/01 06:12:24;;;;;;;14.32;3.58;;;3.30;72.10;;;;;;5051934;28;20048;-70
2022/04/01 06:15:27;;;;;;;4.60;1.60;;;3.30;72.40;;;;;;5045534;28;20135;-70
2022/04/01 06:18:18;;;;;;;4.97;1.30;;;3.40;72.00;;;;;;5056506;28;20045;-70
2022/04/01 06:20:48;;;;;;;3.63;1.15;;;3.40;72.20;;;;;;5049220;28;20106;-70
2022/04/01 06:24:01;;;;;;;4.88;1.17;;;3.40;72.20;;;;;;5051084;28;20100;-71
2022/04/01 06:26:31;;;;;;;3.50;1.38;;;3.40;71.50;;;;;;5043449;28;20516;-70
2022/04/01 06:29:09;;;;;;;7.90;1.30;;;3.30;72.00;;;;;;5045348;28;20552;-70
2022/04/01 06:31:35;;;;;;;8.00;2.03;;;3.30;72.20;;;;;;5048034;28;20068;-70
2022/04/01 06:34:16;;;;;;;4.65;1.15;;;3.30;72.00;;;;;;5061576;28;21343;-70
2022/04/01 06:36:49;;;;;;;4.13;1.00;;;3.30;72.30;;;;;;5052537;28;20048;-71
2022/04/01 06:39:26;;;;;;;2.33;0.90;;;3.40;72.10;;;;;;5051580;28;20044;-71
2022/04/01 06:41:59;;;;;;;4.38;1.73;;;3.40;71.90;;;;;;5051308;28;20102;-71
2022/04/01 06:44:25;;;;;;;5.32;1.75;;;3.30;72.10;;;;;;5042380;28;20044;-70
2022/04/01 06:46:51;;;;;;;5.18;1.52;;;3.40;72.50;;;;;;5051212;28;20040;-70
2022/04/01 06:49:17;;;;;;;9.18;2.20;;;3.30;72.00;;;;;;5052043;28;20060;-70
2022/04/01 06:51:43;;;;;;;4.72;1.13;;;3.40;72.40;;;;;;5051849;28;20048;-69
2022/04/01 06:54:09;;;;;;;2.38;1.05;;;3.40;72.30;;;;;;5050129;28;20037;-70
2022/04/01 06:56:34;;;;;;;7.03;1.30;;;3.40;72.30;;;;;;5050728;28;20049;-69
2022/04/01 06:59:00;;;;;;;8.95;1.73;;;3.50;72.10;;;;;;5065145;28;20041;-69
2022/04/01 07:01:26;;;;;;;8.05;2.40;;;3.40;72.20;;;;;;5049314;28;20041;-69
2022/04/01 07:03:53;;;;;;;5.30;1.30;;;3.40;72.40;;;;;;5057303;28;20037;-70
2022/04/01 07:06:20;;;;;;;2.35;1.15;;;3.50;72.30;;;;;;5069206;28;20512;-68
2022/04/01 07:08:47;;;;;;;3.60;1.17;;;3.50;72.30;;;;;;5055541;28;20071;-70
2022/04/01 07:11:16;;;;;;;3.78;1.50;;;3.60;72.00;;;;;;5049363;28;20036;-70
2022/04/01 07:13:42;;;;;;;5.28;1.65;;;3.50;72.10;;;;;;5048919;28;20456;-70
2022/04/01 07:16:07;;;;;;;8.45;1.42;;;3.50;72.30;;;;;;5049707;28;20264;-69
2022/04/01 07:18:37;;;;;;;6.43;1.50;;;3.50;72.30;;;;;;5049484;28;20052;-70
2022/04/01 07:21:03;;;;;;;5.45;1.52;;;3.60;72.50;;;;;;5062434;28;20056;-70
2022/04/01 07:23:28;;;;;;;7.45;1.50;;;3.60;72.20;;;;;;5059288;28;20047;-69
2022/04/01 07:25:54;;;;;;;5.03;1.50;;;3.60;72.50;;;;;;5049665;28;20221;-69
2022/04/01 07:28:19;;;;;;;18.20;2.03;;;3.60;73.00;;;;;;5048931;28;20043;-70
2022/04/01 07:30:45;;;;;;;6.78;1.30;;;3.60;72.40;;;;;;5047144;28;20489;-69
2022/04/01 07:33:11;;;;;;;3.67;1.10;;;3.70;72.50;;;;;;5049594;28;20465;-69
2022/04/01 07:35:37;;;;;;;3.25;1.05;;;3.80;72.20;;;;;;5049579;28;20128;-68
2022/04/01 07:38:04;;;;;;;9.50;1.70;;;3.70;71.80;;;;;;5052584;28;20387;-67
2022/04/01 07:40:30;;;;;;;3.28;1.10;;;3.80;72.00;;;;;;5055795;28;20041;-69
2022/04/01 07:42:56;;;;;;;3.35;1.48;;;3.80;72.00;;;;;;5051810;28;20087;-70
2022/04/01 07:45:23;;;;;;;2.10;0.98;;;3.80;71.90;;;;;;5062846;28;20040;-68
2022/04/01 07:47:51;;;;;;;4.80;1.20;;;3.90;71.80;;;;;;5061277;28;20497;-68
2022/04/01 07:50:18;;;;;;;4.82;1.33;;;3.90;71.60;;;;;;5058215;28;20043;-67
2022/04/01 07:52:45;;;;;;;6.75;1.65;;;3.90;71.20;;;;;;5035362;28;20049;-68
2022/04/01 07:55:13;;;;;;;6.78;1.75;;;4.00;71.10;;;;;;5057637;28;20933;-68
2022/04/01 07:57:39;;;;;;;4.65;1.55;;;4.00;71.20;;;;;;5063322;28;20040;-68
2022/04/01 08:00:07;;;;;;;10.75;3.20;;;4.00;71.10;;;;;;5068806;28;20425;-68
2022/04/01 08:02:34;;;;;;;2.53;1.23;;;4.10;70.40;;;;;;5047752;28;20549;-69
2022/04/01 08:04:59;;;;;;;4.72;1.20;;;4.10;70.20;;;;;;5050265;28;20039;-68
2022/04/01 08:07:26;;;;;;;4.50;1.55;;;4.00;70.30;;;;;;5066303;28;20056;-68
2022/04/01 08:09:54;;;;;;;4.50;0.93;;;4.10;70.60;;;;;;5046809;28;20556;-68
2022/04/01 08:12:19;;;;;;;4.57;1.17;;;4.10;70.40;;;;;;5046696;28;20052;-69
2022/04/01 08:14:45;;;;;;;2.30;1.30;;;4.10;70.70;;;;;;5049307;28;20045;-69
2022/04/01 08:17:12;;;;;;;4.32;1.08;;;4.20;70.10;;;;;;5049272;28;20054;-68
2022/04/01 08:19:39;;;;;;;6.32;1.30;;;4.20;70.30;;;;;;5053981;28;20056;-67
2022/04/01 08:22:05;;;;;;;3.30;0.95;;;4.20;70.30;;;;;;5060474;28;20033;-67
2022/04/01 08:24:30;;;;;;;3.75;1.23;;;4.20;70.40;;;;;;5060185;28;20101;-67
2022/04/01 08:26:59;;;;;;;3.00;1.02;;;4.30;70.00;;;;;;5047959;28;20536;-67
2022/04/01 08:29:26;;;;;;;7.63;1.33;;;4.30;69.80;;;;;;5049072;28;20049;-67
2022/04/01 08:31:51;;;;;;;5.88;1.23;;;4.30;70.10;;;;;;5047382;28;20060;-67
2022/04/01 08:34:17;;;;;;;2.40;1.40;;;4.40;69.70;;;;;;5048333;28;20599;-67
2022/04/01 08:36:43;;;;;;;5.88;2.00;;;4.40;69.00;;;;;;5046973;28;20135;-68
2022/04/01 08:39:09;;;;;;;5.03;1.15;;;4.40;69.10;;;;;;5048571;28;20053;-73
2022/04/01 08:41:35;;;;;;;3.28;1.30;;;4.40;69.20;;;;;;5047981;28;20047;-67
2022/04/01 08:44:03;;;;;;;6.07;1.10;;;4.60;69.30;;;;;;5048987;28;20053;-68
2022/04/01 08:46:28;;;;;;;4.72;1.23;;;4.60;68.60;;;;;;5048524;28;20048;-67
2022/04/01 08:48:54;;;;;;;3.78;1.45;;;4.50;68.80;;;;;;5048892;28;20353;-66
2022/04/01 08:51:20;;;;;;;3.92;1.08;;;4.50;68.90;;;;;;5050617;28;20436;-67
2022/04/01 08:53:46;;;;;;;7.18;1.10;;;4.60;68.40;;;;;;5035262;28;20409;-68
2022/04/01 08:56:13;;;;;;;4.40;1.50;;;4.50;67.90;;;;;;5052695;28;20045;-68
2022/04/01 08:58:39;;;;;;;8.93;1.23;;;4.40;68.50;;;;;;5052397;28;20053;-68
2022/04/01 09:01:05;;;;;;;2.95;1.10;;;4.40;69.00;;;;;;5051968;28;20057;-67
2022/04/01 09:03:34;;;;;;;7.28;1.02;;;4.40;68.90;;;;;;5052322;28;20045;-67
2022/04/01 09:06:01;;;;;;;3.40;1.30;;;4.50;68.60;;;;;;5051596;28;20449;-69
2022/04/01 09:08:32;;;;;;;4.70;1.35;;;4.50;68.90;;;;;;5052262;28;20060;-69
2022/04/01 09:11:12;;;;;;;1.58;1.05;;;4.50;69.20;;;;;;5034758;28;20155;-67
2022/04/01 09:13:44;;;;;;;2.95;0.93;;;4.60;69.70;;;;;;5052517;28;20060;-67
2022/04/01 09:16:33;;;;;;;2.30;1.05;;;4.60;70.00;;;;;;5036102;28;20132;-67
2022/04/01 09:19:04;;;;;;;4.68;0.98;;;4.60;70.10;;;;;;5032967;28;20041;-67
2022/04/01 09:21:32;;;;;;;5.30;1.20;;;4.60;70.00;;;;;;5032379;28;20048;-68
2022/04/01 09:23:59;;;;;;;3.03;1.02;;;4.50;70.00;;;;;;5032500;28;20060;-68
2022/04/01 09:26:31;;;;;;;3.13;1.10;;;4.50;69.80;;;;;;5050165;28;20045;-68
2022/04/01 09:28:58;;;;;;;4.40;0.85;;;4.60;70.20;;;;;;5052435;28;20753;-67
2022/04/01 09:31:25;;;;;;;5.13;1.27;;;4.60;69.90;;;;;;5052430;28;20053;-68
2022/04/01 09:33:53;;;;;;;2.78;1.25;;;4.70;69.80;;;;;;5052073;28;20059;-68
2022/04/01 09:36:23;;;;;;;3.00;0.98;;;4.60;69.00;;;;;;5051599;28;20076;-67
2022/04/01 09:39:16;;;;;;;6.32;1.63;;;4.60;68.80;;;;;;5050634;28;20048;-68
2022/04/01 09:41:48;;;;;;;6.72;1.17;;;4.70;68.40;;;;;;5052004;28;20048;-68
2022/04/01 09:44:28;;;;;;;3.20;0.88;;;4.70;69.00;;;;;;5051609;28;20053;-68
2022/04/01 09:47:00;;;;;;;2.33;1.20;;;4.70;69.10;;;;;;5051906;28;20597;-68
2022/04/01 09:49:45;;;;;;;8.18;1.05;;;4.80;67.20;;;;;;5051412;28;20080;-68
2022/04/01 09:52:20;;;;;;;4.05;1.08;;;4.80;67.30;;;;;;5051771;28;20110;-68
2022/04/01 09:54:53;;;;;;;2.63;0.95;;;4.80;67.30;;;;;;5051161;28;20052;-68
2022/04/01 09:57:21;;;;;;;5.35;1.20;;;4.80;66.50;;;;;;5051926;28;20045;-68
2022/04/01 09:59:48;;;;;;;2.13;0.90;;;4.80;65.70;;;;;;5051491;28;20058;-66
2022/04/01 10:02:15;;;;;;;9.65;1.73;;;4.80;65.50;;;;;;5049831;28;20053;-70
2022/04/01 10:04:40;;;;;;;3.45;1.35;;;4.80;65.10;;;;;;5051077;28;20111;-70
2022/04/01 10:07:07;;;;;;;4.60;1.10;;;4.90;65.00;;;;;;5049267;28;20084;-70
2022/04/01 10:09:36;;;;;;;1.15;0.70;;;4.90;65.90;;;;;;5033178;28;20559;-68
2022/04/01 10:12:08;;;;;;;3.40;1.00;;;5.10;65.50;;;;;;5050557;28;20041;-70
2022/04/01 10:14:35;;;;;;;;;;;5.10;66.00;;;;;;5030566;28;20410;-69
2022/04/01 10:17:01;;;;;;;5.00;1.02;;;5.10;64.30;;;;;;5048811;28;19991;-70
2022/04/01 10:19:33;;;;;;;1.90;0.82;;;5.10;65.20;;;;;;5051225;28;20060;-69
2022/04/01 10:21:59;;;;;;;5.10;1.42;;;5.10;63.30;;;;;;5051148;28;20087;-69
2022/04/01 10:24:46;;;;;;;4.00;1.58;;;5.10;63.50;;;;;;5051095;28;20080;-68
2022/04/01 10:27:18;;;;;;;6.45;1.08;;;5.00;64.40;;;;;;5050518;28;20052;-68
2022/04/01 10:29:45;;;;;;;6.60;1.23;;;5.00;65.10;;;;;;5050959;28;20049;-68
2022/04/01 10:32:35;;;;;;;5.15;0.95;;;5.10;64.40;;;;;;5051194;28;20512;-67
2022/04/01 10:35:03;;;;;;;5.78;0.93;;;5.20;63.30;;;;;;5050406;28;20409;-69
2022/04/01 10:37:31;;;;;;;6.07;0.80;;;5.20;63.00;;;;;;5050446;28;20166;-68
2022/04/01 10:39:58;;;;;;;3.25;0.70;;;5.20;61.90;;;;;;5048791;28;20056;-69
2022/04/01 10:42:25;;;;;;;5.65;1.10;;;5.30;62.20;;;;;;5046693;28;20033;-70
2022/04/01 10:44:56;;;;;;;1.67;0.88;;;5.40;62.00;;;;;;5050334;28;20049;-69
2022/04/01 10:51:36;;;;;;;2.58;0.90;;;5.50;61.20;;;;;;5050241;28;20076;-69
2022/04/01 10:53:37;;;;;;;2.67;1.15;;;5.60;62.60;;;;;;5048242;28;20055;-69
2022/04/01 10:56:21;;;;;;;8.90;1.38;;;5.70;63.10;;;;;;5049544;28;20549;-69
2022/04/01 10:59:09;;;;;;;3.33;1.13;;;5.80;63.10;;;;;;5047971;28;20567;-69
2022/04/01 11:02:02;;;;;;;5.30;1.27;;;5.90;63.20;;;;;;5049328;28;20413;-71
2022/04/01 11:04:38;;;;;;;2.83;1.05;;;6.00;62.70;;;;;;5046616;28;20401;-72
2022/04/01 11:07:22;;;;;;;4.68;0.90;;;6.00;62.50;;;;;;5049248;28;20597;-72
2022/04/01 11:09:50;;;;;;;5.88;0.93;;;6.00;62.10;;;;;;5048363;28;20630;-71
2022/04/01 11:12:15;;;;;;;3.92;1.08;;;6.00;61.20;;;;;;5049775;28;20045;-72
2022/04/01 11:17:35;;;;;;;3.22;1.10;;;6.00;60.70;;;;;;5047408;28;20128;-72
2022/04/01 11:20:10;;;;;;;1.95;0.80;;;5.90;58.40;;;;;;5047783;28;20110;-71
2022/04/01 11:22:43;;;;;;;2.47;0.73;;;5.80;59.00;;;;;;5047690;28;20053;-71
2022/04/01 11:25:14;;;;;;;1.92;0.95;;;5.80;59.00;;;;;;5046028;28;20456;-73
2022/04/01 11:28:04;;;;;;;1.42;1.10;;;5.80;58.90;;;;;;5047744;28;20049;-70
2022/04/01 11:30:36;;;;;;;5.22;0.93;;;5.90;59.40;;;;;;5028194;28;20057;-70
2022/04/01 11:33:06;;;;;;;2.87;0.60;;;6.00;57.30;;;;;;5047044;28;20057;-71
2022/04/01 11:35:35;;;;;;;3.15;0.65;;;6.00;57.30;;;;;;5046843;28;20067;-72
2022/04/01 11:38:02;;;;;;;2.67;0.73;;;6.00;55.90;;;;;;5046807;28;20044;-70
2022/04/01 11:40:34;;;;;;;4.25;1.48;;;6.00;54.70;;;;;;5046105;28;20064;-72
2022/04/01 11:43:11;;;;;;;4.80;0.65;;;6.00;55.00;;;;;;5046357;28;20595;-74
2022/04/01 11:45:39;;;;;;;8.25;1.42;;;5.90;55.20;;;;;;5045925;28;20444;-72
2022/04/01 11:48:15;;;;;;;4.10;0.65;;;5.90;55.40;;;;;;5048161;28;20757;-72
2022/04/01 11:50:46;;;;;;;5.90;1.00;;;5.90;56.10;;;;;;5047338;28;20510;-70
2022/04/01 11:53:20;;;;;;;2.17;0.60;;;5.90;56.40;;;;;;5047264;28;20045;-71
2022/04/01 11:55:46;;;;;;;3.47;0.82;;;6.10;57.10;;;;;;5038298;28;20047;-71
2022/04/01 11:58:11;;;;;;;1.85;1.25;;;6.20;55.70;;;;;;5047704;28;20040;-72
2022/04/01 12:00:37;;;;;;;4.00;0.82;;;6.10;55.40;;;;;;5046582;28;20049;-71
2022/04/01 12:03:03;;;;;;;4.13;1.45;;;6.10;55.30;;;;;;5046464;28;20040;-72
2022/04/01 12:05:31;;;;;;;4.53;1.00;;;6.00;57.00;;;;;;5046162;28;20045;-71
2022/04/01 12:11:00;;;;;;;6.68;2.25;;;6.10;57.70;;;;;;5046836;28;20128;-72
2022/04/01 12:13:30;;;;;;;1.15;0.60;;;6.10;57.90;;;;;;5048154;28;20409;-71
2022/04/01 12:15:58;;;;;;;7.03;1.10;;;6.00;56.70;;;;;;5048320;28;20053;-72
2022/04/01 12:18:28;;;;;;;7.45;1.00;;;6.00;54.90;;;;;;5048730;28;20103;-71
2022/04/01 12:20:56;;;;;;;4.75;0.90;;;6.00;53.70;;;;;;5057608;28;20040;-69
2022/04/01 12:23:30;;;;;;;2.28;1.00;;;5.90;53.80;;;;;;5050193;28;20552;-70
2022/04/01 12:25:56;;;;;;;4.40;1.10;;;5.90;54.90;;;;;;5050735;28;20048;-71
2022/04/01 12:28:35;;;;;;;3.28;0.90;;;5.90;55.70;;;;;;5048528;28;20055;-69
2022/04/01 12:31:01;;;;;;;5.13;1.10;;;5.90;55.80;;;;;;5045572;28;20036;-71
2022/04/01 12:33:30;;;;;;;5.43;1.50;;;5.90;57.10;;;;;;5045096;28;20045;-71
2022/04/01 12:36:00;;;;;;;5.35;1.00;;;6.00;57.50;;;;;;5047663;28;20049;-72
2022/04/01 12:38:28;;;;;;;5.15;1.15;;;5.90;58.80;;;;;;5033992;28;20525;-72
2022/04/01 12:41:06;;;;;;;2.92;0.90;;;5.70;60.00;;;;;;5048661;28;20730;-73
2022/04/01 12:43:47;;;;;;;5.20;1.10;;;5.60;60.90;;;;;;5047752;28;20044;-72
2022/04/01 12:46:23;;;;;;;1.92;0.93;;;5.50;61.10;;;;;;5048868;28;20132;-72
2022/04/01 12:48:56;;;;;;;6.05;0.85;;;5.60;60.70;;;;;;5048327;28;20080;-71
2022/04/01 12:51:33;;;;;;;3.42;0.85;;;5.60;61.40;;;;;;5045614;28;20502;-71
2022/04/01 12:54:06;;;;;;;4.82;1.92;;;5.70;60.30;;;;;;5045925;28;20037;-71
2022/04/01 12:56:43;;;;;;;6.47;2.30;;;5.70;61.00;;;;;;5047297;28;20052;-71
2022/04/01 12:59:24;;;;;;;2.90;0.90;;;5.90;60.80;;;;;;5047468;28;20041;-71
2022/04/01 13:02:13;;;;;;;5.20;1.20;;;6.10;61.00;;;;;;5046982;28;20052;-71
2022/04/01 13:04:59;;;;;;;3.30;0.90;;;6.10;61.20;;;;;;5046932;28;20048;-71
2022/04/01 13:07:27;;;;;;;6.47;1.67;;;6.30;59.30;;;;;;5046742;28;20065;-71
2022/04/01 13:09:58;;;;;;;4.18;0.90;;;6.10;58.90;;;;;;5045862;28;20522;-72
2022/04/01 13:12:37;;;;;;;4.15;1.38;;;6.10;59.40;;;;;;5045374;28;20041;-71
2022/04/01 13:15:13;;;;;;;3.80;1.10;;;6.20;59.90;;;;;;5047411;28;20110;-72
2022/04/01 13:17:50;;;;;;;3.53;0.77;;;6.30;58.40;;;;;;5046406;28;20049;-72
2022/04/01 13:20:21;;;;;;;5.45;1.42;;;6.30;55.40;;;;;;5048012;28;20093;-71
2022/04/01 13:22:47;;;;;;;5.00;1.10;;;6.20;56.30;;;;;;5035956;28;20110;-71
2022/04/01 13:25:13;;;;;;;11.73;1.58;;;6.30;56.00;;;;;;5051633;28;20037;-70
2022/04/01 13:27:40;;;;;;;8.55;1.15;;;6.30;55.20;;;;;;5047655;28;20502;-71